Time;durP1;ratioP1;P1;durP2;ratioP2;P2;SDS_P1;SDS_P2;PMS_P1;PMS_P2;Temp;Humidity;BMP_temperature;BMP_pressure;BME280_temperature;BME280_humidity;BME280_pressure;Samples;Min_cycle;Max_cycle;Signal;HPM_P1;HPM_P2
2022/08/20 00:00:21;;;;;;;13.35;5.05;;;;;;;;;;4925206;29;20035;-85
2022/08/20 00:02:49;;;;;;;12.00;5.32;;;;;;;;;;4922777;29;20119;-84
2022/08/20 00:05:19;;;;;;;13.75;5.43;;;;;;;;;;4923364;29;20476;-85
2022/08/20 00:07:45;;;;;;;14.23;5.50;;;;;;;;;;4922709;29;20054;-85
2022/08/20 00:10:12;;;;;;;11.10;5.40;;;;;;;;;;4922739;29;20050;-85
2022/08/20 00:12:43;;;;;;;16.23;6.20;;;;;;;;;;4922714;29;20024;-86
2022/08/20 00:15:11;;;;;;;16.92;5.70;;;;;;;;;;4939456;29;20024;-75
2022/08/20 00:17:37;;;;;;;13.50;5.43;;;;;;;;;;4922365;29;20198;-90
2022/08/20 00:20:08;;;;;;;18.10;5.22;;;;;;;;;;4939265;29;20031;-84
2022/08/20 00:22:34;;;;;;;23.00;5.57;;;;;;;;;;4939138;29;20118;-75
2022/08/20 00:25:01;;;;;;;13.32;6.07;;;;;;;;;;4922403;29;20028;-85
2022/08/20 00:27:30;;;;;;;17.85;5.60;;;;;;;;;;4922347;29;20031;-89
2022/08/20 00:29:56;;;;;;;11.52;5.15;;;;;;;;;;4940678;29;20032;-74
2022/08/20 00:32:23;;;;;;;12.23;5.68;;;;;;;;;;4922357;29;20028;-88
2022/08/20 00:34:49;;;;;;;9.73;5.13;;;;;;;;;;4938807;29;20027;-85
2022/08/20 00:37:16;;;;;;;10.63;4.78;;;;;;;;;;4921565;29;20126;-85
2022/08/20 00:39:42;;;;;;;12.18;5.43;;;;;;;;;;4923765;29;20122;-87
2022/08/20 00:42:09;;;;;;;11.80;5.35;;;;;;;;;;4941982;29;20062;-85
2022/08/20 00:44:35;;;;;;;10.43;5.63;;;;;;;;;;4921846;29;20056;-85
2022/08/20 00:47:01;;;;;;;11.32;5.55;;;;;;;;;;4922331;29;20138;-74
2022/08/20 00:49:30;;;;;;;16.48;5.65;;;;;;;;;;4928757;29;20066;-85
2022/08/20 00:51:59;;;;;;;17.17;5.93;;;;;;;;;;4942655;29;20026;-84
2022/08/20 00:54:38;;;;;;;22.13;7.13;;;;;;;;;;4921402;29;20035;-75
2022/08/20 00:57:25;;;;;;;21.15;6.82;;;;;;;;;;4921730;29;20027;-84
2022/08/20 00:59:52;;;;;;;25.63;6.43;;;;;;;;;;4921726;29;20095;-87
2022/08/20 01:02:20;;;;;;;16.92;5.82;;;;;;;;;;4938045;29;20035;-84
2022/08/20 01:04:53;;;;;;;18.63;6.13;;;;;;;;;;4921252;29;20019;-87
2022/08/20 01:07:21;;;;;;;16.10;6.30;;;;;;;;;;4921073;29;20028;-84
2022/08/20 01:09:48;;;;;;;16.58;6.63;;;;;;;;;;4921045;29;20083;-88
2022/08/20 01:12:15;;;;;;;14.80;6.10;;;;;;;;;;4921252;29;20063;-85
2022/08/20 01:14:44;;;;;;;16.20;5.57;;;;;;;;;;4921260;29;20043;-87
2022/08/20 01:17:14;;;;;;;18.08;6.45;;;;;;;;;;4920954;29;20112;-75
2022/08/20 01:19:51;;;;;;;14.35;5.97;;;;;;;;;;4921234;29;20138;-88
2022/08/20 01:25:21;;;;;;;14.18;5.18;;;;;;;;;;4937341;29;20038;-85
2022/08/20 01:27:48;;;;;;;13.98;5.18;;;;;;;;;;4920963;29;20040;-85
2022/08/20 01:30:14;;;;;;;11.13;5.47;;;;;;;;;;4920758;29;20464;-75
2022/08/20 01:32:40;;;;;;;11.48;4.80;;;;;;;;;;4920708;29;20070;-85
2022/08/20 01:35:08;;;;;;;14.95;6.05;;;;;;;;;;4921499;29;20028;-83
2022/08/20 01:37:34;;;;;;;12.00;5.85;;;;;;;;;;4937519;29;20131;-76
2022/08/20 01:40:01;;;;;;;14.57;5.20;;;;;;;;;;4920679;29;20028;-84
2022/08/20 01:42:30;;;;;;;17.55;5.93;;;;;;;;;;4920681;29;20024;-74
2022/08/20 01:44:56;;;;;;;14.00;5.28;;;;;;;;;;4920599;29;20400;-84
2022/08/20 01:47:30;;;;;;;14.30;5.35;;;;;;;;;;4923209;29;20027;-84
2022/08/20 01:50:17;;;;;;;10.80;5.70;;;;;;;;;;4920359;29;20059;-84
2022/08/20 01:52:51;;;;;;;18.30;5.28;;;;;;;;;;4920334;29;20023;-84
2022/08/20 01:55:21;;;;;;;14.23;5.78;;;;;;;;;;4920209;29;20079;-75
2022/08/20 01:57:47;;;;;;;18.90;6.07;;;;;;;;;;4937313;29;20063;-85
2022/08/20 02:00:15;;;;;;;13.38;6.10;;;;;;;;;;4920687;29;20051;-84
2022/08/20 02:02:41;;;;;;;23.38;6.18;;;;;;;;;;4938309;29;20027;-83
2022/08/20 02:05:08;;;;;;;12.07;5.90;;;;;;;;;;4920541;29;20024;-84
2022/08/20 02:07:34;;;;;;;10.07;5.15;;;;;;;;;;4920895;29;20032;-74
2022/08/20 02:10:01;;;;;;;14.48;5.30;;;;;;;;;;4920436;29;20366;-85
2022/08/20 02:12:27;;;;;;;15.98;6.60;;;;;;;;;;4937354;29;20028;-90
2022/08/20 02:14:54;;;;;;;13.80;5.70;;;;;;;;;;4920902;29;20119;-86
2022/08/20 02:17:22;;;;;;;23.42;6.68;;;;;;;;;;4937618;29;20119;-75
2022/08/20 02:19:59;;;;;;;14.90;6.40;;;;;;;;;;4921892;29;20083;-89
2022/08/20 02:22:41;;;;;;;18.00;5.72;;;;;;;;;;4920185;29;20453;-75
2022/08/20 02:25:08;;;;;;;14.02;5.32;;;;;;;;;;4920049;29;20035;-85
2022/08/20 02:27:35;;;;;;;18.48;6.80;;;;;;;;;;4920444;29;20027;-86
2022/08/20 02:30:09;;;;;;;10.98;5.43;;;;;;;;;;4920253;29;20051;-89
2022/08/20 02:32:35;;;;;;;14.57;6.30;;;;;;;;;;4920949;29;20054;-75
2022/08/20 02:35:03;;;;;;;16.15;6.50;;;;;;;;;;4919871;29;20032;-74
2022/08/20 02:37:30;;;;;;;12.25;6.68;;;;;;;;;;4923719;29;20103;-84
2022/08/20 02:39:56;;;;;;;18.92;6.63;;;;;;;;;;4923761;29;20413;-89
2022/08/20 02:42:22;;;;;;;15.45;6.63;;;;;;;;;;4925239;29;20030;-85
2022/08/20 02:44:49;;;;;;;11.23;6.20;;;;;;;;;;4923730;29;20028;-75
2022/08/20 02:47:16;;;;;;;13.23;6.50;;;;;;;;;;4923665;29;20055;-83
2022/08/20 02:49:42;;;;;;;14.63;7.05;;;;;;;;;;4924018;29;20046;-86
2022/08/20 02:52:08;;;;;;;21.73;6.93;;;;;;;;;;4923534;29;20024;-75
2022/08/20 02:54:34;;;;;;;19.80;7.13;;;;;;;;;;4941069;29;20057;-86
2022/08/20 02:57:02;;;;;;;11.45;6.20;;;;;;;;;;4941380;29;20028;-85
2022/08/20 02:59:28;;;;;;;16.77;6.20;;;;;;;;;;4923888;29;20072;-86
2022/08/20 03:01:54;;;;;;;18.02;6.90;;;;;;;;;;4941243;29;20027;-85
2022/08/20 03:04:21;;;;;;;13.73;6.75;;;;;;;;;;4923417;29;20481;-88
2022/08/20 03:06:47;;;;;;;13.90;6.45;;;;;;;;;;4924225;29;20063;-86
2022/08/20 03:09:13;;;;;;;10.98;6.53;;;;;;;;;;4940984;29;20030;-85
2022/08/20 03:11:40;;;;;;;12.88;5.97;;;;;;;;;;4926825;29;20489;-87
2022/08/20 03:14:06;;;;;;;15.40;6.95;;;;;;;;;;4924512;29;20023;-86
2022/08/20 03:16:33;;;;;;;16.65;6.95;;;;;;;;;;4923522;29;20027;-88
2022/08/20 03:18:59;;;;;;;15.48;6.65;;;;;;;;;;4942413;29;20070;-80
2022/08/20 03:21:25;;;;;;;15.02;7.13;;;;;;;;;;4924148;29;20035;-86
2022/08/20 03:23:51;;;;;;;15.50;6.68;;;;;;;;;;4923486;29;20031;-88
2022/08/20 03:26:18;;;;;;;16.88;7.25;;;;;;;;;;4925527;29;20031;-86
2022/08/20 03:28:44;;;;;;;12.75;6.35;;;;;;;;;;4924622;29;20028;-86
2022/08/20 03:31:11;;;;;;;12.02;5.45;;;;;;;;;;4940079;29;20106;-87
2022/08/20 03:33:38;;;;;;;13.48;6.13;;;;;;;;;;4922794;29;20028;-86
2022/08/20 03:36:05;;;;;;;12.30;5.97;;;;;;;;;;4923602;29;20056;-88
2022/08/20 03:38:31;;;;;;;13.48;6.57;;;;;;;;;;4943293;29;20123;-85
2022/08/20 03:40:57;;;;;;;11.10;5.60;;;;;;;;;;4923518;29;20464;-86
2022/08/20 03:43:23;;;;;;;8.55;5.15;;;;;;;;;;4923242;29;20028;-86
2022/08/20 03:45:50;;;;;;;12.25;4.70;;;;;;;;;;4923513;29;20034;-86
2022/08/20 03:48:19;;;;;;;6.95;4.63;;;;;;;;;;4939518;29;20397;-83
2022/08/20 03:50:46;;;;;;;10.15;4.78;;;;;;;;;;4922428;29;20545;-85
2022/08/20 03:53:13;;;;;;;7.95;5.07;;;;;;;;;;4922439;29;20023;-85
2022/08/20 03:55:40;;;;;;;9.35;4.40;;;;;;;;;;4922392;29;20082;-84
2022/08/20 03:58:07;;;;;;;8.25;4.78;;;;;;;;;;4922489;29;20040;-85
2022/08/20 04:00:39;;;;;;;9.80;4.68;;;;;;;;;;4923237;29;20032;-89
2022/08/20 04:03:07;;;;;;;10.55;4.72;;;;;;;;;;4923345;29;20333;-80
2022/08/20 04:05:33;;;;;;;12.48;4.72;;;;;;;;;;4924009;29;20390;-86
2022/08/20 04:08:01;;;;;;;10.65;4.95;;;;;;;;;;4922388;29;20059;-85
2022/08/20 04:10:28;;;;;;;11.18;4.80;;;;;;;;;;4923239;29;20031;-75
2022/08/20 04:12:54;;;;;;;7.45;4.72;;;;;;;;;;4940314;29;20042;-86
2022/08/20 04:15:23;;;;;;;12.98;5.18;;;;;;;;;;4924525;29;20047;-87
2022/08/20 04:17:49;;;;;;;7.25;5.20;;;;;;;;;;4923556;29;20137;-75
2022/08/20 04:20:21;;;;;;;10.77;4.97;;;;;;;;;;4938970;29;20059;-88
2022/08/20 04:22:47;;;;;;;10.60;4.95;;;;;;;;;;4939662;29;20042;-85
2022/08/20 04:25:14;;;;;;;10.75;4.65;;;;;;;;;;4922256;29;20433;-89
2022/08/20 04:27:40;;;;;;;10.48;4.63;;;;;;;;;;4939205;29;20024;-86
2022/08/20 04:30:09;;;;;;;11.18;4.90;;;;;;;;;;4922865;29;20120;-86
2022/08/20 04:32:36;;;;;;;10.15;5.50;;;;;;;;;;4940980;29;20019;-86
2022/08/20 04:35:04;;;;;;;9.13;5.05;;;;;;;;;;4931225;29;20175;-86
2022/08/20 04:37:32;;;;;;;11.10;5.80;;;;;;;;;;4940531;29;20039;-88
2022/08/20 04:42:47;;;;;;;8.63;5.07;;;;;;;;;;4939016;29;20047;-88
2022/08/20 04:45:13;;;;;;;10.98;5.50;;;;;;;;;;4938917;29;20400;-86
2022/08/20 04:47:40;;;;;;;12.43;5.65;;;;;;;;;;4922241;29;20118;-88
2022/08/20 04:50:10;;;;;;;11.75;5.28;;;;;;;;;;4922167;29;20118;-87
2022/08/20 04:52:36;;;;;;;10.98;5.63;;;;;;;;;;4921887;29;20024;-89
2022/08/20 04:55:04;;;;;;;14.80;6.47;;;;;;;;;;4939545;29;20031;-85
2022/08/20 04:57:30;;;;;;;13.88;6.10;;;;;;;;;;4922123;29;20058;-85
2022/08/20 04:59:56;;;;;;;8.75;5.38;;;;;;;;;;4921613;29;20031;-88
2022/08/20 05:02:22;;;;;;;13.38;5.88;;;;;;;;;;4939299;29;20194;-85
2022/08/20 05:04:49;;;;;;;9.80;5.43;;;;;;;;;;4938214;29;20031;-84
2022/08/20 05:07:17;;;;;;;13.75;6.00;;;;;;;;;;4921332;29;20485;-74
2022/08/20 05:09:44;;;;;;;13.38;6.15;;;;;;;;;;4920861;29;20035;-80
2022/08/20 05:12:11;;;;;;;10.15;5.65;;;;;;;;;;4929282;29;20028;-82
2022/08/20 05:14:37;;;;;;;10.63;5.43;;;;;;;;;;4908962;29;20040;-74
2022/08/20 05:17:04;;;;;;;8.65;5.60;;;;;;;;;;4925672;29;20046;-74
2022/08/20 05:19:31;;;;;;;8.48;4.63;;;;;;;;;;4911897;29;20222;-86
2022/08/20 05:21:57;;;;;;;9.93;4.88;;;;;;;;;;4923424;29;20038;-87
2022/08/20 05:24:24;;;;;;;10.55;4.68;;;;;;;;;;4920359;29;20107;-75
2022/08/20 05:26:50;;;;;;;11.15;4.32;;;;;;;;;;4908048;29;20508;-84
2022/08/20 05:29:17;;;;;;;9.35;4.90;;;;;;;;;;4901693;29;20401;-89
2022/08/20 05:31:43;;;;;;;8.52;4.40;;;;;;;;;;4901107;29;20409;-76
2022/08/20 05:34:10;;;;;;;13.05;4.93;;;;;;;;;;4900745;29;20028;-79
2022/08/20 05:36:40;;;;;;;7.88;4.70;;;;;;;;;;4927797;29;20384;-74
2022/08/20 05:39:07;;;;;;;12.20;4.72;;;;;;;;;;4919933;29;20497;-87
2022/08/20 05:41:34;;;;;;;11.52;4.90;;;;;;;;;;4920480;29;20027;-81
2022/08/20 05:44:00;;;;;;;7.15;3.95;;;;;;;;;;4929831;29;20139;-82
2022/08/20 05:46:27;;;;;;;5.45;3.60;;;;;;;;;;4909482;29;20064;-75
2022/08/20 05:48:53;;;;;;;8.90;3.00;;;;;;;;;;4911873;29;20477;-76
2022/08/20 05:51:19;;;;;;;6.88;2.80;;;;;;;;;;4905763;29;20095;-91
2022/08/20 05:53:46;;;;;;;5.90;2.17;;;;;;;;;;4902307;29;20393;-85
2022/08/20 05:56:12;;;;;;;10.77;2.97;;;;;;;;;;4904899;29;20123;-81
2022/08/20 05:58:38;;;;;;;5.20;1.80;;;;;;;;;;4918926;29;20036;-83
2022/08/20 06:01:04;;;;;;;7.47;1.70;;;;;;;;;;4914008;29;20054;-91
2022/08/20 06:06:15;;;;;;;3.17;1.48;;;;;;;;;;4927058;29;20034;-84
2022/08/20 06:08:42;;;;;;;3.90;1.38;;;;;;;;;;4910862;29;20031;-86
2022/08/20 06:11:08;;;;;;;5.40;1.75;;;;;;;;;;4915711;29;20032;-77
2022/08/20 06:13:34;;;;;;;3.65;1.70;;;;;;;;;;4908763;29;20020;-75
2022/08/20 06:16:00;;;;;;;2.63;1.33;;;;;;;;;;4911001;29;20039;-84
2022/08/20 06:18:27;;;;;;;3.08;1.58;;;;;;;;;;4911131;29;20069;-84
2022/08/20 06:20:53;;;;;;;3.05;1.40;;;;;;;;;;4908130;29;20036;-85
2022/08/20 06:23:19;;;;;;;2.88;1.50;;;;;;;;;;4909417;29;20028;-87
2022/08/20 06:25:48;;;;;;;2.50;1.42;;;;;;;;;;4918909;29;20091;-86
2022/08/20 06:28:15;;;;;;;2.65;1.27;;;;;;;;;;4902031;29;20055;-87
2022/08/20 06:30:41;;;;;;;2.05;1.17;;;;;;;;;;4902544;29;20103;-87
2022/08/20 06:33:07;;;;;;;3.58;1.30;;;;;;;;;;4910231;29;20051;-89
2022/08/20 06:35:33;;;;;;;3.92;1.10;;;;;;;;;;4902374;29;20039;-88
2022/08/20 06:37:59;;;;;;;2.47;1.17;;;;;;;;;;4918248;29;20051;-84
2022/08/20 06:40:28;;;;;;;3.15;1.17;;;;;;;;;;4900417;29;20036;-87
2022/08/20 06:42:55;;;;;;;2.70;1.80;;;;;;;;;;4901834;29;20325;-85
2022/08/20 06:45:25;;;;;;;2.40;1.40;;;;;;;;;;4901516;29;20044;-87
2022/08/20 06:47:56;;;;;;;1.80;1.10;;;;;;;;;;4901065;29;20044;-88
2022/08/20 06:50:27;;;;;;;2.10;1.10;;;;;;;;;;4902818;29;20398;-89
2022/08/20 06:52:53;;;;;;;3.83;1.40;;;;;;;;;;4900877;29;20052;-87
2022/08/20 06:55:20;;;;;;;4.28;1.52;;;;;;;;;;4902059;29;20095;-88
2022/08/20 06:57:47;;;;;;;2.20;1.40;;;;;;;;;;4918143;29;20115;-85
2022/08/20 07:00:18;;;;;;;2.45;1.20;;;;;;;;;;4901294;29;20024;-92
2022/08/20 07:02:45;;;;;;;2.97;1.13;;;;;;;;;;4900447;29;20370;-86
2022/08/20 07:05:12;;;;;;;1.75;1.10;;;;;;;;;;4901069;29;20450;-87
2022/08/20 07:07:38;;;;;;;3.53;1.55;;;;;;;;;;4901472;29;20123;-86
2022/08/20 07:10:05;;;;;;;3.17;1.52;;;;;;;;;;4900800;29;20029;-82
2022/08/20 07:12:33;;;;;;;1.70;1.10;;;;;;;;;;4917558;29;20028;-82
2022/08/20 07:21:19;;;;;;;3.08;1.23;;;;;;;;;;4911763;29;20031;-82
2022/08/20 07:23:48;;;;;;;2.13;1.13;;;;;;;;;;4918879;29;20036;-86
2022/08/20 07:26:14;;;;;;;2.95;1.35;;;;;;;;;;4920053;29;20025;-78
2022/08/20 07:28:40;;;;;;;5.32;1.95;;;;;;;;;;4903609;29;20036;-84
2022/08/20 07:33:51;;;;;;;3.20;1.73;;;;;;;;;;4920578;29;20111;-77
2022/08/20 07:36:18;;;;;;;3.03;1.40;;;;;;;;;;4919855;29;20396;-77
2022/08/20 07:38:51;;;;;;;4.00;1.90;;;;;;;;;;4903045;29;20449;-77
2022/08/20 07:41:18;;;;;;;3.22;1.55;;;;;;;;;;4903694;29;20111;-81
2022/08/20 07:43:44;;;;;;;3.95;1.40;;;;;;;;;;4904741;29;20035;-82
2022/08/20 07:46:11;;;;;;;5.13;1.30;;;;;;;;;;4920264;29;20520;-85
2022/08/20 07:48:38;;;;;;;2.83;1.30;;;;;;;;;;4904635;29;20102;-88
2022/08/20 07:51:05;;;;;;;2.55;1.20;;;;;;;;;;4903463;29;20029;-78
2022/08/20 07:53:33;;;;;;;2.22;1.30;;;;;;;;;;4903474;29;20028;-76
2022/08/20 07:56:00;;;;;;;2.97;1.25;;;;;;;;;;4920631;29;20024;-76
2022/08/20 07:58:26;;;;;;;3.85;1.20;;;;;;;;;;4903459;29;20383;-84
2022/08/20 08:00:52;;;;;;;1.90;1.00;;;;;;;;;;4902560;29;20027;-87
2022/08/20 08:03:19;;;;;;;2.33;1.20;;;;;;;;;;4904152;29;20036;-87
2022/08/20 08:05:49;;;;;;;2.60;1.45;;;;;;;;;;4905282;29;20469;-88
2022/08/20 08:08:19;;;;;;;2.63;1.05;;;;;;;;;;4910641;29;20043;-89
2022/08/20 08:10:49;;;;;;;1.77;1.35;;;;;;;;;;4903374;29;20107;-88
2022/08/20 08:13:16;;;;;;;2.50;1.17;;;;;;;;;;4903218;29;20052;-84
2022/08/20 08:15:45;;;;;;;3.17;1.23;;;;;;;;;;4902676;29;20044;-83
2022/08/20 08:18:13;;;;;;;3.70;1.10;;;;;;;;;;4902984;29;20048;-84
2022/08/20 08:20:41;;;;;;;2.78;1.20;;;;;;;;;;4919171;29;20526;-85
2022/08/20 08:23:10;;;;;;;2.00;0.90;;;;;;;;;;4906585;29;20031;-83
2022/08/20 08:25:37;;;;;;;2.28;1.38;;;;;;;;;;4919714;29;20032;-83
2022/08/20 08:28:04;;;;;;;3.15;1.30;;;;;;;;;;4920365;29;20027;-84
2022/08/20 08:30:31;;;;;;;2.25;1.50;;;;;;;;;;4903909;29;20087;-85
2022/08/20 08:35:45;;;;;;;3.65;1.63;;;;;;;;;;4919964;29;20043;-83
2022/08/20 08:38:12;;;;;;;2.17;1.40;;;;;;;;;;4919824;29;20075;-82
2022/08/20 08:40:39;;;;;;;4.03;1.30;;;;;;;;;;4920266;29;20487;-85
2022/08/20 08:43:05;;;;;;;3.35;1.65;;;;;;;;;;4920435;29;20091;-85
2022/08/20 08:45:44;;;;;;;3.15;1.80;;;;;;;;;;4920613;29;20025;-83
2022/08/20 08:48:14;;;;;;;2.95;1.58;;;;;;;;;;4919844;29;20028;-85
2022/08/20 08:50:41;;;;;;;4.75;2.00;;;;;;;;;;4919680;29;20157;-85
2022/08/20 08:53:10;;;;;;;2.00;1.50;;;;;;;;;;4919651;29;20477;-86
2022/08/20 08:55:36;;;;;;;2.42;1.50;;;;;;;;;;4903561;29;20028;-84
2022/08/20 08:58:02;;;;;;;2.97;1.55;;;;;;;;;;4919868;29;20036;-85
2022/08/20 09:00:29;;;;;;;2.55;1.50;;;;;;;;;;4921282;29;20095;-80
2022/08/20 09:03:00;;;;;;;2.53;1.60;;;;;;;;;;4919916;29;20055;-85
2022/08/20 09:05:30;;;;;;;2.45;1.50;;;;;;;;;;4919291;29;20083;-85
2022/08/20 09:07:56;;;;;;;2.60;1.60;;;;;;;;;;4902321;29;20047;-86
2022/08/20 09:10:23;;;;;;;3.75;1.40;;;;;;;;;;4919050;29;20091;-85
2022/08/20 09:12:51;;;;;;;4.28;1.50;;;;;;;;;;4902588;29;20024;-84
2022/08/20 09:15:17;;;;;;;2.25;1.35;;;;;;;;;;4919559;29;20474;-85
2022/08/20 09:17:43;;;;;;;5.38;1.50;;;;;;;;;;4919363;29;20052;-85
2022/08/20 09:20:09;;;;;;;2.65;1.30;;;;;;;;;;4918972;29;20036;-85
2022/08/20 09:22:35;;;;;;;5.97;1.50;;;;;;;;;;4902189;29;20032;-83
2022/08/20 09:25:02;;;;;;;2.65;1.63;;;;;;;;;;4902147;29;20056;-81
2022/08/20 09:27:30;;;;;;;2.55;1.40;;;;;;;;;;4902299;29;20167;-79
2022/08/20 09:29:56;;;;;;;2.15;1.25;;;;;;;;;;4902636;29;20035;-77
2022/08/20 09:32:23;;;;;;;2.78;1.30;;;;;;;;;;4917903;29;20067;-78
2022/08/20 09:34:54;;;;;;;3.30;1.67;;;;;;;;;;4918152;29;20028;-76
2022/08/20 09:37:21;;;;;;;2.65;1.65;;;;;;;;;;4917808;29;20060;-76
2022/08/20 09:39:50;;;;;;;2.38;1.58;;;;;;;;;;4900958;29;20110;-76
2022/08/20 09:44:46;;;;;;;3.90;1.80;;;;;;;;;;4935266;29;20043;-76
2022/08/20 09:47:12;;;;;;;2.53;1.35;;;;;;;;;;4936259;29;20465;-76
2022/08/20 09:49:38;;;;;;;3.60;1.42;;;;;;;;;;4936952;29;20110;-83
2022/08/20 09:52:06;;;;;;;2.88;1.70;;;;;;;;;;4920025;29;20032;-80
2022/08/20 09:54:32;;;;;;;7.35;1.70;;;;;;;;;;4920022;29;20083;-76
2022/08/20 09:57:01;;;;;;;3.80;1.40;;;;;;;;;;4920362;29;20023;-81
2022/08/20 09:59:28;;;;;;;2.85;1.70;;;;;;;;;;4920703;29;20475;-82
2022/08/20 10:01:54;;;;;;;4.45;1.73;;;;;;;;;;4921474;29;20061;-84
2022/08/20 10:04:20;;;;;;;4.47;1.85;;;;;;;;;;4919884;29;20059;-85
2022/08/20 10:06:47;;;;;;;3.67;1.45;;;;;;;;;;4920213;29;20035;-85
2022/08/20 10:09:13;;;;;;;4.90;1.92;;;;;;;;;;4920638;29;20024;-85
2022/08/20 10:11:39;;;;;;;3.17;1.73;;;;;;;;;;4920576;29;20499;-85
2022/08/20 10:14:07;;;;;;;2.47;1.40;;;;;;;;;;4936630;29;20473;-82
2022/08/20 10:16:37;;;;;;;3.10;1.80;;;;;;;;;;4920929;29;20030;-92
2022/08/20 10:19:04;;;;;;;3.03;1.70;;;;;;;;;;4939076;29;20039;-83
2022/08/20 10:21:31;;;;;;;15.75;1.80;;;;;;;;;;4920690;29;20523;-83
2022/08/20 10:23:57;;;;;;;3.10;1.70;;;;;;;;;;4938053;29;20138;-82
2022/08/20 10:26:26;;;;;;;3.05;1.48;;;;;;;;;;4922806;29;20278;-78
2022/08/20 10:28:52;;;;;;;3.85;1.90;;;;;;;;;;4939541;29;20034;-83
2022/08/20 10:31:19;;;;;;;2.40;1.60;;;;;;;;;;4936298;29;20055;-77
2022/08/20 10:33:45;;;;;;;3.45;1.77;;;;;;;;;;4920437;29;20039;-92
2022/08/20 10:36:14;;;;;;;6.25;2.13;;;;;;;;;;4919884;29;20507;-86
2022/08/20 10:38:41;;;;;;;1.90;1.00;;;;;;;;;;4920069;29;20035;-87
2022/08/20 10:41:07;;;;;;;2.65;1.40;;;;;;;;;;4937539;29;20062;-84
2022/08/20 10:43:33;;;;;;;1.83;0.90;;;;;;;;;;4920306;29;20052;-85
2022/08/20 10:45:59;;;;;;;1.33;0.88;;;;;;;;;;4919827;29;20028;-82
2022/08/20 10:48:26;;;;;;;6.35;1.50;;;;;;;;;;4918896;29;20028;-85
2022/08/20 10:50:52;;;;;;;2.35;1.30;;;;;;;;;;4919376;29;20091;-80
2022/08/20 10:53:18;;;;;;;1.80;1.08;;;;;;;;;;4919775;29;20028;-84
2022/08/20 10:55:44;;;;;;;2.63;1.30;;;;;;;;;;4919723;29;20024;-85
2022/08/20 10:58:12;;;;;;;4.00;1.02;;;;;;;;;;4923893;29;20480;-84
2022/08/20 11:00:38;;;;;;;2.10;1.10;;;;;;;;;;4941273;29;20035;-81
2022/08/20 11:03:04;;;;;;;1.90;1.02;;;;;;;;;;4940169;29;20087;-82
2022/08/20 11:05:30;;;;;;;4.13;1.13;;;;;;;;;;4922632;29;20028;-83
2022/08/20 11:07:58;;;;;;;1.52;0.90;;;;;;;;;;4923158;29;20092;-84
2022/08/20 11:10:28;;;;;;;2.13;1.25;;;;;;;;;;4923313;29;20527;-76
2022/08/20 11:12:55;;;;;;;2.53;1.00;;;;;;;;;;4922839;29;20023;-83
2022/08/20 11:15:21;;;;;;;4.22;0.80;;;;;;;;;;4939943;29;20034;-84
2022/08/20 11:17:47;;;;;;;3.53;1.25;;;;;;;;;;4923165;29;20098;-82
2022/08/20 11:20:14;;;;;;;4.55;1.10;;;;;;;;;;4922888;29;20028;-82
2022/08/20 11:22:40;;;;;;;1.98;1.00;;;;;;;;;;4923025;29;20107;-83
2022/08/20 11:25:08;;;;;;;6.22;1.20;;;;;;;;;;4923128;29;20035;-84
2022/08/20 11:27:35;;;;;;;1.92;0.93;;;;;;;;;;4940127;29;20056;-85
2022/08/20 11:30:02;;;;;;;3.63;1.10;;;;;;;;;;4922892;29;20028;-83
2022/08/20 11:32:28;;;;;;;2.92;0.90;;;;;;;;;;4923142;29;20365;-82
2022/08/20 11:34:54;;;;;;;1.95;1.30;;;;;;;;;;4923188;29;20053;-83
2022/08/20 11:37:21;;;;;;;2.95;1.30;;;;;;;;;;4922887;29;20540;-85
2022/08/20 11:39:48;;;;;;;2.00;1.00;;;;;;;;;;4932078;29;20079;-83
2022/08/20 11:42:14;;;;;;;2.15;1.20;;;;;;;;;;4939856;29;20026;-81
2022/08/20 11:44:40;;;;;;;3.90;1.20;;;;;;;;;;4922206;29;20115;-84
2022/08/20 11:47:07;;;;;;;2.53;1.35;;;;;;;;;;4923150;29;20477;-85
2022/08/20 11:49:34;;;;;;;1.70;1.10;;;;;;;;;;4923285;29;20020;-85
2022/08/20 11:52:01;;;;;;;2.25;1.42;;;;;;;;;;4923009;29;20032;-84
2022/08/20 12:00:40;;;;;;;2.28;1.38;;;;;;;;;;4885398;29;20052;-82
2022/08/20 12:03:07;;;;;;;2.15;1.10;;;;;;;;;;4921570;29;20489;-82
2022/08/20 12:05:33;;;;;;;2.20;1.30;;;;;;;;;;4940155;29;20074;-84
2022/08/20 12:08:02;;;;;;;2.20;1.33;;;;;;;;;;4923252;29;20027;-89
2022/08/20 12:10:30;;;;;;;3.10;1.55;;;;;;;;;;4923241;29;20389;-87
2022/08/20 12:12:56;;;;;;;4.68;1.48;;;;;;;;;;4922249;29;20028;-89
2022/08/20 12:15:25;;;;;;;3.25;1.50;;;;;;;;;;4939984;29;20115;-89
2022/08/20 12:17:52;;;;;;;2.88;1.80;;;;;;;;;;4922651;29;20028;-73
2022/08/20 12:20:18;;;;;;;3.20;1.40;;;;;;;;;;4922841;29;20082;-89
2022/08/20 12:22:57;;;;;;;3.10;1.50;;;;;;;;;;4923197;29;20024;-85
2022/08/20 12:25:24;;;;;;;2.22;1.42;;;;;;;;;;4929790;29;20130;-86
2022/08/20 12:27:50;;;;;;;3.28;1.63;;;;;;;;;;4921631;29;20064;-88
2022/08/20 12:30:19;;;;;;;2.15;1.38;;;;;;;;;;4922086;29;20027;-82
2022/08/20 12:32:45;;;;;;;3.00;1.20;;;;;;;;;;4923175;29;20366;-86
2022/08/20 12:35:12;;;;;;;3.10;1.80;;;;;;;;;;4923633;29;20034;-88
2022/08/20 12:37:39;;;;;;;3.10;1.58;;;;;;;;;;4923130;29;20492;-83
2022/08/20 12:43:57;;;;;;;3.35;1.67;;;;;;;;;;4939838;29;20039;-84
2022/08/20 12:46:17;;;;;;;4.32;1.75;;;;;;;;;;4933536;29;20032;-74
2022/08/20 12:48:47;;;;;;;3.00;1.60;;;;;;;;;;4922441;29;20055;-79
2022/08/20 12:51:13;;;;;;;3.05;1.60;;;;;;;;;;4938287;29;20032;-76
2022/08/20 12:53:39;;;;;;;2.35;1.10;;;;;;;;;;4938361;29;20078;-76
2022/08/20 12:56:05;;;;;;;2.75;1.80;;;;;;;;;;4938373;29;20493;-77
2022/08/20 12:58:32;;;;;;;2.67;1.55;;;;;;;;;;4921527;29;20055;-84
2022/08/20 13:00:58;;;;;;;5.82;1.15;;;;;;;;;;4938698;29;20024;-80
2022/08/20 13:03:24;;;;;;;2.50;1.30;;;;;;;;;;4938872;29;20115;-80
2022/08/20 13:05:50;;;;;;;3.42;1.10;;;;;;;;;;4939479;29;20020;-77
2022/08/20 13:08:17;;;;;;;2.75;1.30;;;;;;;;;;4921944;29;20035;-82
2022/08/20 13:10:55;;;;;;;1.88;0.90;;;;;;;;;;4945728;29;20000;-85
2022/08/20 13:13:31;;;;;;;1.80;1.10;;;;;;;;;;4936581;29;20031;-86
2022/08/20 13:16:13;;;;;;;1.92;0.90;;;;;;;;;;4926540;29;20035;-84
2022/08/20 13:18:39;;;;;;;3.77;1.33;;;;;;;;;;4922023;29;20190;-88
2022/08/20 13:21:05;;;;;;;3.08;1.60;;;;;;;;;;4919635;29;20035;-79
2022/08/20 13:23:31;;;;;;;1.83;1.00;;;;;;;;;;4920373;29;20508;-78
2022/08/20 13:25:57;;;;;;;4.70;1.30;;;;;;;;;;4920320;29;20036;-77
2022/08/20 13:28:23;;;;;;;2.33;1.58;;;;;;;;;;4920226;29;20082;-80
2022/08/20 13:30:50;;;;;;;2.35;1.35;;;;;;;;;;4920160;29;20035;-82
2022/08/20 13:33:16;;;;;;;3.50;1.65;;;;;;;;;;4920472;29;20050;-86
2022/08/20 13:35:42;;;;;;;3.28;1.80;;;;;;;;;;4938619;29;20517;-88
2022/08/20 13:38:08;;;;;;;4.78;1.45;;;;;;;;;;4924464;29;20046;-86
2022/08/20 13:40:34;;;;;;;1.85;1.20;;;;;;;;;;4920169;29;20039;-87
2022/08/20 13:43:00;;;;;;;2.17;1.10;;;;;;;;;;4920428;29;20027;-73
2022/08/20 13:45:27;;;;;;;3.17;1.70;;;;;;;;;;4920247;29;20028;-83
2022/08/20 13:47:53;;;;;;;2.70;1.40;;;;;;;;;;4919817;29;20171;-82
2022/08/20 13:50:21;;;;;;;2.42;1.58;;;;;;;;;;4919557;29;20028;-81
2022/08/20 13:52:48;;;;;;;4.25;1.38;;;;;;;;;;4920473;29;20099;-75
2022/08/20 13:55:15;;;;;;;3.25;1.55;;;;;;;;;;4919448;29;20469;-77
2022/08/20 13:57:42;;;;;;;5.10;1.70;;;;;;;;;;4936450;29;20054;-76
2022/08/20 14:00:13;;;;;;;3.65;1.40;;;;;;;;;;4920591;29;20028;-87
2022/08/20 14:02:40;;;;;;;4.40;1.38;;;;;;;;;;4921168;29;20035;-88
2022/08/20 14:05:07;;;;;;;7.05;1.33;;;;;;;;;;4921303;29;20024;-85
2022/08/20 14:07:33;;;;;;;1.40;0.70;;;;;;;;;;4921271;29;20027;-86
2022/08/20 14:10:01;;;;;;;2.03;1.00;;;;;;;;;;4921529;29;20020;-88
2022/08/20 14:12:28;;;;;;;2.58;1.05;;;;;;;;;;4922175;29;20059;-83
2022/08/20 14:14:54;;;;;;;2.25;0.90;;;;;;;;;;4927776;29;20070;-87
2022/08/20 14:17:25;;;;;;;1.73;0.85;;;;;;;;;;4921449;29;20094;-87
2022/08/20 14:19:53;;;;;;;1.67;0.80;;;;;;;;;;4921653;29;20055;-88
2022/08/20 14:22:20;;;;;;;2.30;1.00;;;;;;;;;;4921122;29;20493;-84
2022/08/20 14:24:46;;;;;;;1.98;1.10;;;;;;;;;;4922025;29;20027;-87
2022/08/20 14:27:13;;;;;;;2.03;1.08;;;;;;;;;;4921943;29;20028;-85
2022/08/20 14:29:41;;;;;;;3.65;0.85;;;;;;;;;;4921105;29;20370;-87
2022/08/20 14:32:07;;;;;;;3.28;1.10;;;;;;;;;;4920661;29;20387;-87
2022/08/20 14:34:34;;;;;;;3.95;1.40;;;;;;;;;;4921540;29;20389;-88
2022/08/20 14:37:09;;;;;;;2.92;1.10;;;;;;;;;;4922718;29;20046;-86
2022/08/20 14:39:35;;;;;;;2.40;1.13;;;;;;;;;;4919896;29;20115;-78
2022/08/20 14:42:02;;;;;;;2.15;1.08;;;;;;;;;;4920501;29;20026;-87
2022/08/20 14:44:30;;;;;;;3.35;1.17;;;;;;;;;;4920648;29;20038;-87
2022/08/20 14:46:57;;;;;;;2.05;1.20;;;;;;;;;;4920596;29;20036;-87
2022/08/20 14:49:23;;;;;;;3.70;1.50;;;;;;;;;;4920937;29;20028;-85
2022/08/20 14:51:49;;;;;;;5.70;1.50;;;;;;;;;;4928332;29;20035;-75
2022/08/20 14:54:15;;;;;;;1.75;0.98;;;;;;;;;;4923684;29;20039;-85
2022/08/20 14:56:41;;;;;;;3.92;1.40;;;;;;;;;;4920157;29;20048;-86
2022/08/20 14:59:07;;;;;;;2.55;1.23;;;;;;;;;;4920099;29;20044;-85
2022/08/20 15:01:33;;;;;;;2.65;1.60;;;;;;;;;;4920296;29;20489;-84
2022/08/20 15:03:59;;;;;;;5.28;1.40;;;;;;;;;;4920404;29;20028;-84
2022/08/20 15:06:25;;;;;;;2.13;1.40;;;;;;;;;;4920260;29;20032;-85
2022/08/20 15:08:55;;;;;;;3.65;1.90;;;;;;;;;;4920961;29;20071;-81
2022/08/20 15:11:21;;;;;;;2.42;1.20;;;;;;;;;;4936524;29;20023;-79